sensor_id;sensor_type;location;lat;lon;timestamp;pressure;altitude;pressure_sealevel;temperature;humidity
61035;BME280;46916;40.564;-7.958;2024-01-07T00:01:34;97997.59;;;6.79;92.89
61035;BME280;46916;40.564;-7.958;2024-01-07T00:03:35;98003.34;;;6.84;92.59
61035;BME280;46916;40.564;-7.958;2024-01-07T00:05:36;97994.69;;;6.84;91.92
61035;BME280;46916;40.564;-7.958;2024-01-07T00:07:37;97993.97;;;6.82;91.94
61035;BME280;46916;40.564;-7.958;2024-01-07T00:09:39;97990.72;;;6.78;91.62
61035;BME280;46916;40.564;-7.958;2024-01-07T00:11:40;97990.44;;;6.83;91.46
61035;BME280;46916;40.564;-7.958;2024-01-07T00:13:41;97984.38;;;6.82;91.54
61035;BME280;46916;40.564;-7.958;2024-01-07T00:15:42;97989.50;;;6.84;90.88
61035;BME280;46916;40.564;-7.958;2024-01-07T00:17:42;97977.59;;;6.80;90.82
61035;BME280;46916;40.564;-7.958;2024-01-07T00:19:43;97975.28;;;6.75;90.51
61035;BME280;46916;40.564;-7.958;2024-01-07T00:21:44;97989.88;;;6.78;90.48
61035;BME280;46916;40.564;-7.958;2024-01-07T00:23:45;97983.19;;;6.74;90.69
61035;BME280;46916;40.564;-7.958;2024-01-07T00:25:46;97998.59;;;6.77;90.41
61035;BME280;46916;40.564;-7.958;2024-01-07T00:27:47;97988.56;;;6.70;90.69
61035;BME280;46916;40.564;-7.958;2024-01-07T00:29:48;97995.63;;;6.68;90.56
61035;BME280;46916;40.564;-7.958;2024-01-07T00:31:49;98002.88;;;6.63;90.36
61035;BME280;46916;40.564;-7.958;2024-01-07T00:33:50;97997.09;;;6.58;90.37
61035;BME280;46916;40.564;-7.958;2024-01-07T00:35:50;98007.34;;;6.61;90.25
61035;BME280;46916;40.564;-7.958;2024-01-07T00:37:51;98000.72;;;6.56;89.70
61035;BME280;46916;40.564;-7.958;2024-01-07T00:39:52;97984.81;;;6.46;90.29
61035;BME280;46916;40.564;-7.958;2024-01-07T00:41:53;97996.06;;;6.47;90.33
61035;BME280;46916;40.564;-7.958;2024-01-07T00:43:53;97988.69;;;6.39;91.12
61035;BME280;46916;40.564;-7.958;2024-01-07T00:45:54;97980.16;;;6.37;91.30
61035;BME280;46916;40.564;-7.958;2024-01-07T00:47:55;97993.50;;;6.31;92.64
61035;BME280;46916;40.564;-7.958;2024-01-07T00:49:56;97986.66;;;6.30;92.42
61035;BME280;46916;40.564;-7.958;2024-01-07T00:51:56;97979.84;;;6.27;92.65
61035;BME280;46916;40.564;-7.958;2024-01-07T00:53:57;97994.91;;;6.36;93.01
61035;BME280;46916;40.564;-7.958;2024-01-07T00:55:58;97986.19;;;6.37;92.69
61035;BME280;46916;40.564;-7.958;2024-01-07T00:57:59;97986.09;;;6.39;92.87
61035;BME280;46916;40.564;-7.958;2024-01-07T01:00:00;97975.88;;;6.36;92.24
61035;BME280;46916;40.564;-7.958;2024-01-07T01:02:05;97986.09;;;6.39;92.13
61035;BME280;46916;40.564;-7.958;2024-01-07T01:04:05;97981.84;;;6.38;92.16
61035;BME280;46916;40.564;-7.958;2024-01-07T01:06:06;97975.97;;;6.34;91.39
61035;BME280;46916;40.564;-7.958;2024-01-07T01:08:07;97962.56;;;6.26;91.55
61035;BME280;46916;40.564;-7.958;2024-01-07T01:10:09;97972.88;;;6.28;90.25
61035;BME280;46916;40.564;-7.958;2024-01-07T01:12:10;97976.69;;;6.22;89.80
61035;BME280;46916;40.564;-7.958;2024-01-07T01:14:11;97968.66;;;6.11;89.09
61035;BME280;46916;40.564;-7.958;2024-01-07T01:16:11;97957.59;;;5.91;89.77
61035;BME280;46916;40.564;-7.958;2024-01-07T01:18:12;97948.78;;;5.80;89.57
61035;BME280;46916;40.564;-7.958;2024-01-07T01:20:13;97938.81;;;5.72;89.74
61035;BME280;46916;40.564;-7.958;2024-01-07T01:22:13;97942.38;;;5.55;90.48
61035;BME280;46916;40.564;-7.958;2024-01-07T01:24:14;97946.28;;;5.46;90.88
61035;BME280;46916;40.564;-7.958;2024-01-07T01:26:15;97946.06;;;5.35;91.39
61035;BME280;46916;40.564;-7.958;2024-01-07T01:28:15;97960.56;;;5.39;92.13
61035;BME280;46916;40.564;-7.958;2024-01-07T01:30:16;97965.25;;;5.49;91.90
61035;BME280;46916;40.564;-7.958;2024-01-07T01:32:17;97952.00;;;5.53;92.23
61035;BME280;46916;40.564;-7.958;2024-01-07T01:34:18;97949.06;;;5.59;91.42
61035;BME280;46916;40.564;-7.958;2024-01-07T01:36:19;97954.06;;;5.62;91.57
61035;BME280;46916;40.564;-7.958;2024-01-07T01:38:20;97941.25;;;5.59;90.81
61035;BME280;46916;40.564;-7.958;2024-01-07T01:40:20;97945.94;;;5.68;90.98
61035;BME280;46916;40.564;-7.958;2024-01-07T01:42:21;97950.59;;;5.78;90.68
61035;BME280;46916;40.564;-7.958;2024-01-07T01:44:22;97952.94;;;5.82;89.93
61035;BME280;46916;40.564;-7.958;2024-01-07T01:46:23;97963.00;;;5.88;89.75
61035;BME280;46916;40.564;-7.958;2024-01-07T01:48:25;97963.00;;;5.88;89.34
61035;BME280;46916;40.564;-7.958;2024-01-07T01:50:27;97955.38;;;5.85;89.87
61035;BME280;46916;40.564;-7.958;2024-01-07T01:52:28;97961.97;;;5.91;89.82
61035;BME280;46916;40.564;-7.958;2024-01-07T01:54:29;97955.09;;;5.90;89.25
61035;BME280;46916;40.564;-7.958;2024-01-07T01:56:30;97959.34;;;5.92;89.12
61035;BME280;46916;40.564;-7.958;2024-01-07T01:58:32;97961.72;;;5.95;89.16
61035;BME280;46916;40.564;-7.958;2024-01-07T02:00:33;97961.72;;;5.95;89.34
61035;BME280;46916;40.564;-7.958;2024-01-07T02:02:34;97961.97;;;5.91;89.20
61035;BME280;46916;40.564;-7.958;2024-01-07T02:04:35;97947.56;;;5.85;88.87
61035;BME280;46916;40.564;-7.958;2024-01-07T02:06:36;97950.59;;;5.78;88.38
61035;BME280;46916;40.564;-7.958;2024-01-07T02:08:37;97958.66;;;5.73;88.86
61035;BME280;46916;40.564;-7.958;2024-01-07T02:10:38;97961.69;;;5.65;89.27
61035;BME280;46916;40.564;-7.958;2024-01-07T02:12:38;97971.00;;;5.69;89.60
61035;BME280;46916;40.564;-7.958;2024-01-07T02:14:39;97968.56;;;5.66;88.74
61035;BME280;46916;40.564;-7.958;2024-01-07T02:16:40;97974.69;;;5.65;89.02
61035;BME280;46916;40.564;-7.958;2024-01-07T02:18:42;97978.06;;;5.67;88.78
61035;BME280;46916;40.564;-7.958;2024-01-07T02:20:43;97965.22;;;5.64;89.02
61035;BME280;46916;40.564;-7.958;2024-01-07T02:22:44;97972.66;;;5.70;88.46
61035;BME280;46916;40.564;-7.958;2024-01-07T02:24:45;97963.19;;;5.69;87.87
61035;BME280;46916;40.564;-7.958;2024-01-07T02:26:46;97961.69;;;5.65;87.52
61035;BME280;46916;40.564;-7.958;2024-01-07T02:28:46;97959.25;;;5.62;88.61
61035;BME280;46916;40.564;-7.958;2024-01-07T02:30:47;97955.00;;;5.61;88.27
61035;BME280;46916;40.564;-7.958;2024-01-07T02:32:48;97956.22;;;5.70;88.31
61035;BME280;46916;40.564;-7.958;2024-01-07T02:34:49;97955.97;;;5.75;87.90
61035;BME280;46916;40.564;-7.958;2024-01-07T02:36:49;97951.19;;;5.67;87.36
61035;BME280;46916;40.564;-7.958;2024-01-07T02:38:50;97960.88;;;5.65;88.49
61035;BME280;46916;40.564;-7.958;2024-01-07T02:40:51;97951.41;;;5.64;87.62
61035;BME280;46916;40.564;-7.958;2024-01-07T02:42:51;97952.91;;;5.68;87.87
61035;BME280;46916;40.564;-7.958;2024-01-07T02:44:52;97957.44;;;5.64;88.29
61035;BME280;46916;40.564;-7.958;2024-01-07T02:46:53;97955.00;;;5.61;87.68
61035;BME280;46916;40.564;-7.958;2024-01-07T02:48:54;97968.56;;;5.66;87.69
61035;BME280;46916;40.564;-7.958;2024-01-07T02:50:55;97964.19;;;5.67;87.81
61035;BME280;46916;40.564;-7.958;2024-01-07T02:52:56;97962.38;;;5.69;87.07
61035;BME280;46916;40.564;-7.958;2024-01-07T02:54:59;97962.09;;;5.74;87.28
61035;BME280;46916;40.564;-7.958;2024-01-07T02:57:02;97957.91;;;5.71;87.17
61035;BME280;46916;40.564;-7.958;2024-01-07T02:59:03;97949.09;;;5.74;86.68
61035;BME280;46916;40.564;-7.958;2024-01-07T03:01:08;97955.31;;;5.71;87.46
61035;BME280;46916;40.564;-7.958;2024-01-07T03:03:09;97960.44;;;5.72;87.28
61035;BME280;46916;40.564;-7.958;2024-01-07T03:05:09;97964.78;;;5.72;87.06
61035;BME280;46916;40.564;-7.958;2024-01-07T03:07:10;97970.91;;;5.71;87.15
61035;BME280;46916;40.564;-7.958;2024-01-07T03:09:11;97970.00;;;5.72;86.54
61035;BME280;46916;40.564;-7.958;2024-01-07T03:11:12;97966.06;;;5.65;86.67
61035;BME280;46916;40.564;-7.958;2024-01-07T03:13:13;97982.16;;;5.71;87.22
61035;BME280;46916;40.564;-7.958;2024-01-07T03:15:13;97973.69;;;5.68;87.25
61035;BME280;46916;40.564;-7.958;2024-01-07T03:17:14;97978.13;;;5.66;87.11
61035;BME280;46916;40.564;-7.958;2024-01-07T03:19:17;97975.19;;;5.72;86.96
61035;BME280;46916;40.564;-7.958;2024-01-07T03:21:19;97984.50;;;5.76;87.61
61035;BME280;46916;40.564;-7.958;2024-01-07T03:23:20;97974.25;;;5.73;86.72
61035;BME280;46916;40.564;-7.958;2024-01-07T03:25:21;97984.41;;;5.78;87.66
61035;BME280;46916;40.564;-7.958;2024-01-07T03:27:22;97981.22;;;5.72;86.87
61035;BME280;46916;40.564;-7.958;2024-01-07T03:29:22;97987.84;;;5.78;86.88
61035;BME280;46916;40.564;-7.958;2024-01-07T03:31:23;97985.22;;;5.78;87.02
61035;BME280;46916;40.564;-7.958;2024-01-07T03:33:24;97984.31;;;5.79;86.55
61035;BME280;46916;40.564;-7.958;2024-01-07T03:35:24;97974.94;;;5.77;86.91
61035;BME280;46916;40.564;-7.958;2024-01-07T03:37:25;97969.06;;;5.73;87.00
61035;BME280;46916;40.564;-7.958;2024-01-07T03:39:26;97963.69;;;5.76;86.53
61035;BME280;46916;40.564;-7.958;2024-01-07T03:41:26;97980.88;;;5.79;87.05
61035;BME280;46916;40.564;-7.958;2024-01-07T03:43:27;97970.47;;;5.79;87.57
61035;BME280;46916;40.564;-7.958;2024-01-07T03:45:28;97974.00;;;5.78;87.56
61035;BME280;46916;40.564;-7.958;2024-01-07T03:47:29;97977.53;;;5.77;87.12
61035;BME280;46916;40.564;-7.958;2024-01-07T03:49:30;97978.63;;;5.72;86.87
61035;BME280;46916;40.564;-7.958;2024-01-07T03:51:31;97971.00;;;5.69;87.54
61035;BME280;46916;40.564;-7.958;2024-01-07T03:53:32;97977.78;;;5.72;86.96
61035;BME280;46916;40.564;-7.958;2024-01-07T03:55:33;97961.69;;;5.65;87.26
61035;BME280;46916;40.564;-7.958;2024-01-07T03:57:33;97959.34;;;5.61;87.14
61035;BME280;46916;40.564;-7.958;2024-01-07T03:59:34;97966.78;;;5.67;87.25
61035;BME280;46916;40.564;-7.958;2024-01-07T04:01:35;97961.78;;;5.64;86.71
61035;BME280;46916;40.564;-7.958;2024-01-07T04:03:37;97948.28;;;5.57;87.47
61035;BME280;46916;40.564;-7.958;2024-01-07T04:05:38;97955.94;;;5.60;86.91
61035;BME280;46916;40.564;-7.958;2024-01-07T04:07:39;97946.94;;;5.50;86.52
61035;BME280;46916;40.564;-7.958;2024-01-07T04:09:42;97957.28;;;5.36;86.56
61035;BME280;46916;40.564;-7.958;2024-01-07T04:11:43;97957.81;;;5.27;86.94
61035;BME280;46916;40.564;-7.958;2024-01-07T04:13:44;97958.69;;;5.26;87.43
61035;BME280;46916;40.564;-7.958;2024-01-07T04:15:44;97952.00;;;5.21;86.60
61035;BME280;46916;40.564;-7.958;2024-01-07T04:17:45;97950.91;;;5.26;87.17
61035;BME280;46916;40.564;-7.958;2024-01-07T04:19:46;97952.50;;;5.28;86.31
61035;BME280;46916;40.564;-7.958;2024-01-07T04:21:46;97951.69;;;5.28;86.86
61035;BME280;46916;40.564;-7.958;2024-01-07T04:23:47;97955.78;;;5.32;86.85
61035;BME280;46916;40.564;-7.958;2024-01-07T04:25:48;97949.81;;;5.30;87.17
61035;BME280;46916;40.564;-7.958;2024-01-07T04:27:48;97956.53;;;5.34;86.74
61035;BME280;46916;40.564;-7.958;2024-01-07T04:29:49;97952.34;;;5.31;86.73
61035;BME280;46916;40.564;-7.958;2024-01-07T04:31:50;97957.59;;;5.30;85.87
61035;BME280;46916;40.564;-7.958;2024-01-07T04:33:51;97951.09;;;5.22;87.54
61035;BME280;46916;40.564;-7.958;2024-01-07T04:35:51;97947.63;;;5.22;86.94
61035;BME280;46916;40.564;-7.958;2024-01-07T04:37:52;97940.78;;;5.21;85.67
61035;BME280;46916;40.564;-7.958;2024-01-07T04:39:53;97949.31;;;5.07;86.20
61035;BME280;46916;40.564;-7.958;2024-01-07T04:41:53;97946.47;;;4.96;87.00
61035;BME280;46916;40.564;-7.958;2024-01-07T04:43:54;97952.41;;;4.82;88.25
61035;BME280;46916;40.564;-7.958;2024-01-07T04:45:55;97941.34;;;4.79;87.91
61035;BME280;46916;40.564;-7.958;2024-01-07T04:47:56;97946.44;;;4.80;88.80
61035;BME280;46916;40.564;-7.958;2024-01-07T04:49:57;97952.41;;;4.82;88.61
61035;BME280;46916;40.564;-7.958;2024-01-07T04:51:58;97945.44;;;4.83;88.62
61035;BME280;46916;40.564;-7.958;2024-01-07T04:53:59;97936.59;;;4.87;88.15
61035;BME280;46916;40.564;-7.958;2024-01-07T04:55:59;97958.59;;;4.95;87.98
61035;BME280;46916;40.564;-7.958;2024-01-07T04:58:00;97943.44;;;4.88;88.19
61035;BME280;46916;40.564;-7.958;2024-01-07T05:00:02;97950.16;;;4.92;88.06
61035;BME280;46916;40.564;-7.958;2024-01-07T05:02:04;97950.06;;;4.93;87.79
61035;BME280;46916;40.564;-7.958;2024-01-07T05:04:04;97957.78;;;4.95;87.40
61035;BME280;46916;40.564;-7.958;2024-01-07T05:06:07;97960.22;;;4.98;87.66
61035;BME280;46916;40.564;-7.958;2024-01-07T05:08:08;97942.78;;;5.00;87.87
61035;BME280;46916;40.564;-7.958;2024-01-07T05:10:09;97949.31;;;5.07;87.75
61035;BME280;46916;40.564;-7.958;2024-01-07T05:12:10;97947.31;;;5.12;87.91
61035;BME280;46916;40.564;-7.958;2024-01-07T05:14:11;97955.69;;;5.17;87.44
61035;BME280;46916;40.564;-7.958;2024-01-07T05:16:19;97949.59;;;5.18;87.21
61035;BME280;46916;40.564;-7.958;2024-01-07T05:18:23;97943.78;;;5.13;86.85
61035;BME280;46916;40.564;-7.958;2024-01-07T05:20:24;97936.94;;;5.12;87.04
61035;BME280;46916;40.564;-7.958;2024-01-07T05:22:24;97948.97;;;5.13;87.43
61035;BME280;46916;40.564;-7.958;2024-01-07T05:24:25;97949.16;;;5.10;87.60
61035;BME280;46916;40.564;-7.958;2024-01-07T05:26:26;97952.84;;;5.06;87.18
61035;BME280;46916;40.564;-7.958;2024-01-07T05:28:27;97944.44;;;5.01;87.92
61035;BME280;46916;40.564;-7.958;2024-01-07T05:30:27;97940.19;;;5.00;87.60
61035;BME280;46916;40.564;-7.958;2024-01-07T05:32:28;97938.28;;;5.04;87.45
61035;BME280;46916;40.564;-7.958;2024-01-07T05:34:29;97940.97;;;5.02;87.80
61035;BME280;46916;40.564;-7.958;2024-01-07T05:36:30;97935.94;;;4.99;88.00
61035;BME280;46916;40.564;-7.958;2024-01-07T05:38:30;97941.03;;;5.01;88.12
61035;BME280;46916;40.564;-7.958;2024-01-07T05:40:31;97940.53;;;4.94;87.69
61035;BME280;46916;40.564;-7.958;2024-01-07T05:42:32;97937.94;;;4.94;88.42
61035;BME280;46916;40.564;-7.958;2024-01-07T05:44:32;97926.19;;;4.87;87.55
61035;BME280;46916;40.564;-7.958;2024-01-07T05:46:33;97940.75;;;4.89;88.67
61035;BME280;46916;40.564;-7.958;2024-01-07T05:48:41;97939.09;;;4.88;88.47
61035;BME280;46916;40.564;-7.958;2024-01-07T05:50:43;97937.41;;;4.87;88.42
61035;BME280;46916;40.564;-7.958;2024-01-07T05:52:44;97929.03;;;4.82;87.93
61035;BME280;46916;40.564;-7.958;2024-01-07T05:54:45;97928.78;;;4.87;88.39
61035;BME280;46916;40.564;-7.958;2024-01-07T05:56:46;97939.75;;;4.92;88.29
61035;BME280;46916;40.564;-7.958;2024-01-07T05:58:46;97945.78;;;4.92;88.41
61035;BME280;46916;40.564;-7.958;2024-01-07T06:00:47;97931.56;;;4.84;88.11
61035;BME280;46916;40.564;-7.958;2024-01-07T06:02:48;97934.06;;;4.85;88.03
61035;BME280;46916;40.564;-7.958;2024-01-07T06:04:48;97940.75;;;4.89;88.53
61035;BME280;46916;40.564;-7.958;2024-01-07T06:06:50;97934.25;;;4.82;87.94
61035;BME280;46916;40.564;-7.958;2024-01-07T06:08:50;97937.72;;;4.81;87.71
61035;BME280;46916;40.564;-7.958;2024-01-07T06:10:51;97936.00;;;4.82;88.15
61035;BME280;46916;40.564;-7.958;2024-01-07T06:12:52;97936.06;;;4.80;88.28
61035;BME280;46916;40.564;-7.958;2024-01-07T06:14:53;97941.41;;;4.77;87.96
61035;BME280;46916;40.564;-7.958;2024-01-07T06:16:54;97941.59;;;4.74;87.60
61035;BME280;46916;40.564;-7.958;2024-01-07T06:18:54;97953.63;;;4.75;88.02
61035;BME280;46916;40.564;-7.958;2024-01-07T06:20:55;97956.47;;;4.70;88.26
61035;BME280;46916;40.564;-7.958;2024-01-07T06:22:56;97962.41;;;4.72;87.77
61035;BME280;46916;40.564;-7.958;2024-01-07T06:24:57;97956.47;;;4.70;88.20
61035;BME280;46916;40.564;-7.958;2024-01-07T06:26:58;97963.69;;;4.65;88.28
61035;BME280;46916;40.564;-7.958;2024-01-07T06:28:59;97963.00;;;4.62;88.23
61035;BME280;46916;40.564;-7.958;2024-01-07T06:31:02;97961.53;;;4.56;87.83
61035;BME280;46916;40.564;-7.958;2024-01-07T06:33:03;97970.00;;;4.60;88.09
61035;BME280;46916;40.564;-7.958;2024-01-07T06:35:05;97972.69;;;4.58;87.70
61035;BME280;46916;40.564;-7.958;2024-01-07T06:37:06;97971.41;;;4.50;87.95
61035;BME280;46916;40.564;-7.958;2024-01-07T06:39:08;97978.34;;;4.49;88.16
61035;BME280;46916;40.564;-7.958;2024-01-07T06:41:12;97967.22;;;4.47;88.56
61035;BME280;46916;40.564;-7.958;2024-01-07T06:43:13;97972.41;;;4.47;88.69
61035;BME280;46916;40.564;-7.958;2024-01-07T06:45:15;97966.47;;;4.45;88.61
61035;BME280;46916;40.564;-7.958;2024-01-07T06:47:15;97982.78;;;4.47;89.01
61035;BME280;46916;40.564;-7.958;2024-01-07T06:49:16;97994.81;;;4.48;88.58
61035;BME280;46916;40.564;-7.958;2024-01-07T06:51:17;98010.09;;;4.54;88.28
61035;BME280;46916;40.564;-7.958;2024-01-07T06:53:18;97996.72;;;4.44;88.54
61035;BME280;46916;40.564;-7.958;2024-01-07T06:55:19;98011.31;;;4.47;88.92
61035;BME280;46916;40.564;-7.958;2024-01-07T06:57:19;98007.28;;;4.41;88.82
61035;BME280;46916;40.564;-7.958;2024-01-07T06:59:20;98012.22;;;4.46;88.64
61035;BME280;46916;40.564;-7.958;2024-01-07T07:01:21;98009.53;;;4.47;88.62
61035;BME280;46916;40.564;-7.958;2024-01-07T07:03:25;98013.81;;;4.48;88.14
61035;BME280;46916;40.564;-7.958;2024-01-07T07:05:26;98001.25;;;4.41;88.71
61035;BME280;46916;40.564;-7.958;2024-01-07T07:07:27;98002.91;;;4.42;88.93
61035;BME280;46916;40.564;-7.958;2024-01-07T07:09:28;98005.50;;;4.42;88.09
61035;BME280;46916;40.564;-7.958;2024-01-07T07:11:29;98004.75;;;4.40;88.73
61035;BME280;46916;40.564;-7.958;2024-01-07T07:13:30;97994.75;;;4.32;88.56
61035;BME280;46916;40.564;-7.958;2024-01-07T07:15:31;97999.72;;;4.37;88.24
61035;BME280;46916;40.564;-7.958;2024-01-07T07:17:31;98007.34;;;4.40;88.84
61035;BME280;46916;40.564;-7.958;2024-01-07T07:19:32;97999.94;;;4.32;88.85
61035;BME280;46916;40.564;-7.958;2024-01-07T07:21:33;98007.66;;;4.34;88.42
61035;BME280;46916;40.564;-7.958;2024-01-07T07:23:33;98007.44;;;4.21;89.21
61035;BME280;46916;40.564;-7.958;2024-01-07T07:25:34;98013.47;;;4.21;89.03
61035;BME280;46916;40.564;-7.958;2024-01-07T07:27:35;98009.63;;;4.11;90.00
61035;BME280;46916;40.564;-7.958;2024-01-07T07:29:35;97995.03;;;3.91;89.75
61035;BME280;46916;40.564;-7.958;2024-01-07T07:31:36;98017.47;;;3.92;90.96
61035;BME280;46916;40.564;-7.958;2024-01-07T07:33:41;98013.41;;;3.87;90.72
61035;BME280;46916;40.564;-7.958;2024-01-07T07:35:41;98018.53;;;3.88;90.92
61035;BME280;46916;40.564;-7.958;2024-01-07T07:37:42;98010.28;;;3.80;91.35
61035;BME280;46916;40.564;-7.958;2024-01-07T07:39:43;98016.31;;;3.81;91.38
61035;BME280;46916;40.564;-7.958;2024-01-07T07:41:44;98019.81;;;3.80;91.50
61035;BME280;46916;40.564;-7.958;2024-01-07T07:43:44;98017.84;;;3.85;91.78
61035;BME280;46916;40.564;-7.958;2024-01-07T07:45:45;98016.41;;;3.96;90.96
61035;BME280;46916;40.564;-7.958;2024-01-07T07:47:46;98019.75;;;3.98;90.81
61035;BME280;46916;40.564;-7.958;2024-01-07T07:49:46;98018.16;;;3.96;90.66
61035;BME280;46916;40.564;-7.958;2024-01-07T07:51:47;98012.56;;;3.86;90.38
61035;BME280;46916;40.564;-7.958;2024-01-07T07:53:48;98029.59;;;3.92;90.73
61035;BME280;46916;40.564;-7.958;2024-01-07T07:55:48;98033.31;;;3.86;91.66
61035;BME280;46916;40.564;-7.958;2024-01-07T07:57:50;98031.03;;;3.80;91.19
61035;BME280;46916;40.564;-7.958;2024-01-07T07:59:52;98032.97;;;3.75;91.41
61035;BME280;46916;40.564;-7.958;2024-01-07T08:01:53;98027.41;;;3.65;91.31
61035;BME280;46916;40.564;-7.958;2024-01-07T08:03:54;98033.56;;;3.63;91.71
61035;BME280;46916;40.564;-7.958;2024-01-07T08:05:55;98045.75;;;3.61;92.59
61035;BME280;46916;40.564;-7.958;2024-01-07T08:07:56;98041.53;;;3.58;92.57
61035;BME280;46916;40.564;-7.958;2024-01-07T08:09:56;98041.53;;;3.58;92.67
61035;BME280;46916;40.564;-7.958;2024-01-07T08:11:58;98045.25;;;3.71;91.88
61035;BME280;46916;40.564;-7.958;2024-01-07T08:13:58;98053.34;;;3.83;91.46
61035;BME280;46916;40.564;-7.958;2024-01-07T08:15:59;98045.88;;;3.77;91.11
61035;BME280;46916;40.564;-7.958;2024-01-07T08:18:01;98037.63;;;3.68;91.57
61035;BME280;46916;40.564;-7.958;2024-01-07T08:20:03;98042.03;;;3.66;91.38
61035;BME280;46916;40.564;-7.958;2024-01-07T08:22:04;98038.13;;;3.58;92.03
61035;BME280;46916;40.564;-7.958;2024-01-07T08:24:05;98035.81;;;3.52;92.66
61035;BME280;46916;40.564;-7.958;2024-01-07T08:26:06;98048.69;;;3.53;93.17
61035;BME280;46916;40.564;-7.958;2024-01-07T08:28:06;98054.72;;;3.54;92.73
61035;BME280;46916;40.564;-7.958;2024-01-07T08:30:07;98051.28;;;3.53;93.49
61035;BME280;46916;40.564;-7.958;2024-01-07T08:32:08;98049.41;;;3.57;93.76
61035;BME280;46916;40.564;-7.958;2024-01-07T08:34:09;98048.56;;;3.56;93.64
61035;BME280;46916;40.564;-7.958;2024-01-07T08:36:10;98055.28;;;3.60;93.18
61035;BME280;46916;40.564;-7.958;2024-01-07T08:38:11;98045.44;;;3.67;93.95
61035;BME280;46916;40.564;-7.958;2024-01-07T08:40:12;98043.06;;;3.81;93.04
61035;BME280;46916;40.564;-7.958;2024-01-07T08:42:14;98045.75;;;3.97;92.53
61035;BME280;46916;40.564;-7.958;2024-01-07T08:44:14;98038.84;;;4.15;91.92
61035;BME280;46916;40.564;-7.958;2024-01-07T08:46:15;98048.59;;;4.27;91.96
61035;BME280;46916;40.564;-7.958;2024-01-07T08:48:16;98048.81;;;4.40;91.48
61035;BME280;46916;40.564;-7.958;2024-01-07T08:50:17;98052.78;;;4.64;91.07
61035;BME280;46916;40.564;-7.958;2024-01-07T08:52:18;98040.78;;;4.79;90.27
61035;BME280;46916;40.564;-7.958;2024-01-07T08:54:19;98042.22;;;5.02;89.09
61035;BME280;46916;40.564;-7.958;2024-01-07T08:56:19;98042.84;;;5.23;88.30
61035;BME280;46916;40.564;-7.958;2024-01-07T08:58:20;98039.81;;;5.46;86.68
61035;BME280;46916;40.564;-7.958;2024-01-07T09:00:21;98035.97;;;5.69;85.47
61035;BME280;46916;40.564;-7.958;2024-01-07T09:02:26;98039.84;;;5.94;84.61
61035;BME280;46916;40.564;-7.958;2024-01-07T09:04:27;98045.50;;;6.16;83.83
61035;BME280;46916;40.564;-7.958;2024-01-07T09:06:28;98028.16;;;6.31;83.13
61035;BME280;46916;40.564;-7.958;2024-01-07T09:08:29;98045.34;;;6.64;82.22
61035;BME280;46916;40.564;-7.958;2024-01-07T09:10:30;98052.63;;;6.87;80.70
61035;BME280;46916;40.564;-7.958;2024-01-07T09:12:30;98044.81;;;7.02;80.41
61035;BME280;46916;40.564;-7.958;2024-01-07T09:14:31;98047.34;;;7.17;79.23
61035;BME280;46916;40.564;-7.958;2024-01-07T09:16:32;98045.09;;;7.26;79.07
61035;BME280;46916;40.564;-7.958;2024-01-07T09:18:32;98049.47;;;7.39;78.50
61035;BME280;46916;40.564;-7.958;2024-01-07T09:20:33;98046.66;;;7.57;78.40
61035;BME280;46916;40.564;-7.958;2024-01-07T09:22:34;98052.41;;;7.76;78.09
61035;BME280;46916;40.564;-7.958;2024-01-07T09:24:35;98067.16;;;7.90;78.25
61035;BME280;46916;40.564;-7.958;2024-01-07T09:26:36;98061.28;;;7.86;77.84
61035;BME280;46916;40.564;-7.958;2024-01-07T09:28:37;98076.50;;;7.80;78.07
61035;BME280;46916;40.564;-7.958;2024-01-07T09:30:38;98071.72;;;7.59;78.34
61035;BME280;46916;40.564;-7.958;2024-01-07T09:32:40;98078.41;;;7.49;78.94
61035;BME280;46916;40.564;-7.958;2024-01-07T09:34:41;98065.31;;;7.36;79.34
61035;BME280;46916;40.564;-7.958;2024-01-07T09:36:42;98073.03;;;7.24;79.88
61035;BME280;46916;40.564;-7.958;2024-01-07T09:38:42;98083.44;;;7.09;80.71
61035;BME280;46916;40.564;-7.958;2024-01-07T09:40:43;98085.22;;;6.94;80.94
61035;BME280;46916;40.564;-7.958;2024-01-07T09:42:44;98095.91;;;6.90;81.57
61035;BME280;46916;40.564;-7.958;2024-01-07T09:44:45;98091.03;;;6.84;81.92
61035;BME280;46916;40.564;-7.958;2024-01-07T09:46:46;98090.31;;;6.82;82.04
61035;BME280;46916;40.564;-7.958;2024-01-07T09:48:52;98079.91;;;6.82;82.35
61035;BME280;46916;40.564;-7.958;2024-01-07T09:50:54;98086.22;;;6.78;83.08
61035;BME280;46916;40.564;-7.958;2024-01-07T09:52:56;98090.38;;;6.80;83.43
61035;BME280;46916;40.564;-7.958;2024-01-07T09:55:03;98092.03;;;6.81;83.72
61035;BME280;46916;40.564;-7.958;2024-01-07T09:57:05;98097.19;;;6.83;83.59
61035;BME280;46916;40.564;-7.958;2024-01-07T09:59:07;98112.63;;;6.86;84.31
61035;BME280;46916;40.564;-7.958;2024-01-07T10:01:09;98109.16;;;6.85;83.98
61035;BME280;46916;40.564;-7.958;2024-01-07T10:03:10;98114.97;;;6.90;84.19
61035;BME280;46916;40.564;-7.958;2024-01-07T10:05:11;98118.28;;;6.92;84.72
61035;BME280;46916;40.564;-7.958;2024-01-07T10:07:12;98106.38;;;6.88;84.71
61035;BME280;46916;40.564;-7.958;2024-01-07T10:09:13;98115.13;;;6.87;84.64
61035;BME280;46916;40.564;-7.958;2024-01-07T10:11:14;98104.22;;;6.81;84.95
61035;BME280;46916;40.564;-7.958;2024-01-07T10:13:15;98113.63;;;6.83;85.14
61035;BME280;46916;40.564;-7.958;2024-01-07T10:15:15;98104.59;;;6.75;85.84
61035;BME280;46916;40.564;-7.958;2024-01-07T10:17:17;98102.94;;;6.74;86.13
61035;BME280;46916;40.564;-7.958;2024-01-07T10:19:22;98087.56;;;6.69;86.65
61035;BME280;46916;40.564;-7.958;2024-01-07T10:21:23;98092.69;;;6.70;86.79
61035;BME280;46916;40.564;-7.958;2024-01-07T10:23:24;98092.19;;;6.64;86.16
61035;BME280;46916;40.564;-7.958;2024-01-07T10:25:25;98092.44;;;6.45;85.91
61035;BME280;46916;40.564;-7.958;2024-01-07T10:27:25;98098.53;;;6.44;86.18
61035;BME280;46916;40.564;-7.958;2024-01-07T10:29:26;98098.66;;;6.42;86.81
61035;BME280;46916;40.564;-7.958;2024-01-07T10:31:27;98095.13;;;6.43;86.43
61035;BME280;46916;40.564;-7.958;2024-01-07T10:33:31;98089.19;;;6.41;87.13
61035;BME280;46916;40.564;-7.958;2024-01-07T10:35:36;98090.03;;;6.56;86.49
61035;BME280;46916;40.564;-7.958;2024-01-07T10:37:38;98111.66;;;6.73;86.80
61035;BME280;46916;40.564;-7.958;2024-01-07T10:39:40;98109.25;;;6.84;85.95
61035;BME280;46916;40.564;-7.958;2024-01-07T10:41:41;98109.09;;;7.01;85.22